sensor_id;sensor_type;location;lat;lon;timestamp;P1;durP1;ratioP1;P2;durP2;ratioP2
55134;SDS011;41031;44.750;11.308;2022-12-07T00:01:22;86.70;;;35.17;;
55134;SDS011;41031;44.750;11.308;2022-12-07T00:03:53;80.70;;;35.33;;
55134;SDS011;41031;44.750;11.308;2022-12-07T00:06:23;82.07;;;34.30;;
55134;SDS011;41031;44.750;11.308;2022-12-07T00:08:50;79.43;;;36.47;;
55134;SDS011;41031;44.750;11.308;2022-12-07T00:11:18;72.87;;;34.03;;
55134;SDS011;41031;44.750;11.308;2022-12-07T00:13:47;92.57;;;36.30;;
55134;SDS011;41031;44.750;11.308;2022-12-07T00:16:22;66.73;;;30.80;;
55134;SDS011;41031;44.750;11.308;2022-12-07T00:18:50;56.40;;;29.27;;
55134;SDS011;41031;44.750;11.308;2022-12-07T00:21:18;56.07;;;29.20;;
55134;SDS011;41031;44.750;11.308;2022-12-07T00:23:47;66.57;;;31.60;;
55134;SDS011;41031;44.750;11.308;2022-12-07T00:26:17;63.47;;;30.63;;
55134;SDS011;41031;44.750;11.308;2022-12-07T00:28:47;70.93;;;32.77;;
55134;SDS011;41031;44.750;11.308;2022-12-07T00:31:15;76.47;;;33.13;;
55134;SDS011;41031;44.750;11.308;2022-12-07T00:33:43;77.87;;;34.13;;
55134;SDS011;41031;44.750;11.308;2022-12-07T00:36:12;75.10;;;34.37;;
55134;SDS011;41031;44.750;11.308;2022-12-07T00:38:41;89.43;;;35.23;;
55134;SDS011;41031;44.750;11.308;2022-12-07T00:41:16;76.87;;;33.27;;
55134;SDS011;41031;44.750;11.308;2022-12-07T00:43:45;76.17;;;29.33;;
55134;SDS011;41031;44.750;11.308;2022-12-07T00:46:13;66.87;;;29.63;;
55134;SDS011;41031;44.750;11.308;2022-12-07T00:48:41;78.53;;;31.47;;
55134;SDS011;41031;44.750;11.308;2022-12-07T00:51:09;108.90;;;31.07;;
55134;SDS011;41031;44.750;11.308;2022-12-07T00:53:38;109.30;;;32.03;;
55134;SDS011;41031;44.750;11.308;2022-12-07T00:56:28;86.30;;;29.67;;
55134;SDS011;41031;44.750;11.308;2022-12-07T00:58:55;80.07;;;27.47;;
55134;SDS011;41031;44.750;11.308;2022-12-07T01:01:25;70.30;;;28.50;;
55134;SDS011;41031;44.750;11.308;2022-12-07T01:03:54;85.33;;;29.23;;
55134;SDS011;41031;44.750;11.308;2022-12-07T01:06:22;81.87;;;28.07;;
55134;SDS011;41031;44.750;11.308;2022-12-07T01:08:50;71.97;;;27.33;;
55134;SDS011;41031;44.750;11.308;2022-12-07T01:11:18;117.80;;;27.87;;
55134;SDS011;41031;44.750;11.308;2022-12-07T01:13:49;83.70;;;27.80;;
55134;SDS011;41031;44.750;11.308;2022-12-07T01:16:17;109.67;;;30.30;;
55134;SDS011;41031;44.750;11.308;2022-12-07T01:18:46;103.53;;;30.10;;
55134;SDS011;41031;44.750;11.308;2022-12-07T01:21:16;122.77;;;30.40;;
55134;SDS011;41031;44.750;11.308;2022-12-07T01:23:45;106.27;;;31.33;;
55134;SDS011;41031;44.750;11.308;2022-12-07T01:26:13;87.53;;;30.60;;
55134;SDS011;41031;44.750;11.308;2022-12-07T01:28:41;81.87;;;30.50;;
55134;SDS011;41031;44.750;11.308;2022-12-07T01:31:10;142.00;;;29.57;;
55134;SDS011;41031;44.750;11.308;2022-12-07T01:33:43;120.07;;;29.60;;
55134;SDS011;41031;44.750;11.308;2022-12-07T01:36:16;151.93;;;31.83;;
55134;SDS011;41031;44.750;11.308;2022-12-07T01:38:48;120.77;;;32.97;;
55134;SDS011;41031;44.750;11.308;2022-12-07T01:41:20;125.07;;;30.30;;
55134;SDS011;41031;44.750;11.308;2022-12-07T01:46:40;125.83;;;30.27;;
55134;SDS011;41031;44.750;11.308;2022-12-07T01:49:30;94.43;;;29.47;;
55134;SDS011;41031;44.750;11.308;2022-12-07T01:52:30;151.87;;;30.97;;
55134;SDS011;41031;44.750;11.308;2022-12-07T01:55:03;81.23;;;31.10;;
55134;SDS011;41031;44.750;11.308;2022-12-07T01:57:34;110.20;;;32.70;;
55134;SDS011;41031;44.750;11.308;2022-12-07T02:00:06;99.23;;;31.33;;
55134;SDS011;41031;44.750;11.308;2022-12-07T02:05:14;122.23;;;34.33;;
55134;SDS011;41031;44.750;11.308;2022-12-07T02:07:43;116.37;;;32.50;;
55134;SDS011;41031;44.750;11.308;2022-12-07T02:10:20;111.77;;;32.13;;
55134;SDS011;41031;44.750;11.308;2022-12-07T02:12:58;94.60;;;32.00;;
55134;SDS011;41031;44.750;11.308;2022-12-07T02:24:23;93.80;;;31.97;;
55134;SDS011;41031;44.750;11.308;2022-12-07T02:29:33;105.03;;;30.07;;
55134;SDS011;41031;44.750;11.308;2022-12-07T02:32:20;177.03;;;33.27;;
55134;SDS011;41031;44.750;11.308;2022-12-07T02:37:41;168.17;;;32.87;;
55134;SDS011;41031;44.750;11.308;2022-12-07T02:43:07;138.17;;;31.93;;
55134;SDS011;41031;44.750;11.308;2022-12-07T02:45:41;153.10;;;33.40;;
55134;SDS011;41031;44.750;11.308;2022-12-07T02:48:12;161.60;;;35.73;;
55134;SDS011;41031;44.750;11.308;2022-12-07T02:50:45;231.63;;;36.57;;
55134;SDS011;41031;44.750;11.308;2022-12-07T02:59:25;158.50;;;33.00;;
55134;SDS011;41031;44.750;11.308;2022-12-07T03:11:08;117.20;;;33.13;;
55134;SDS011;41031;44.750;11.308;2022-12-07T03:13:50;118.37;;;34.67;;
55134;SDS011;41031;44.750;11.308;2022-12-07T03:16:31;259.83;;;37.57;;
55134;SDS011;41031;44.750;11.308;2022-12-07T03:19:04;117.83;;;32.60;;
55134;SDS011;41031;44.750;11.308;2022-12-07T03:21:42;165.20;;;34.93;;
55134;SDS011;41031;44.750;11.308;2022-12-07T03:24:24;120.07;;;34.67;;
55134;SDS011;41031;44.750;11.308;2022-12-07T03:27:01;112.90;;;34.63;;
55134;SDS011;41031;44.750;11.308;2022-12-07T03:29:49;145.73;;;37.17;;
55134;SDS011;41031;44.750;11.308;2022-12-07T03:32:30;131.07;;;35.67;;
55134;SDS011;41031;44.750;11.308;2022-12-07T03:37:39;119.10;;;37.67;;
55134;SDS011;41031;44.750;11.308;2022-12-07T03:42:57;135.03;;;37.37;;
55134;SDS011;41031;44.750;11.308;2022-12-07T03:45:31;121.77;;;37.87;;
55134;SDS011;41031;44.750;11.308;2022-12-07T03:56:10;94.40;;;32.00;;
55134;SDS011;41031;44.750;11.308;2022-12-07T03:58:38;78.90;;;30.87;;
55134;SDS011;41031;44.750;11.308;2022-12-07T04:01:07;79.23;;;32.00;;
55134;SDS011;41031;44.750;11.308;2022-12-07T04:03:35;72.83;;;31.43;;
55134;SDS011;41031;44.750;11.308;2022-12-07T04:06:02;73.03;;;32.30;;
55134;SDS011;41031;44.750;11.308;2022-12-07T04:08:29;72.17;;;31.57;;
55134;SDS011;41031;44.750;11.308;2022-12-07T04:10:56;66.03;;;28.37;;
55134;SDS011;41031;44.750;11.308;2022-12-07T04:13:23;66.63;;;30.57;;
55134;SDS011;41031;44.750;11.308;2022-12-07T04:15:50;64.83;;;30.07;;
55134;SDS011;41031;44.750;11.308;2022-12-07T04:18:18;73.40;;;30.33;;
55134;SDS011;41031;44.750;11.308;2022-12-07T04:20:45;67.87;;;28.67;;
55134;SDS011;41031;44.750;11.308;2022-12-07T04:23:12;70.50;;;30.93;;
55134;SDS011;41031;44.750;11.308;2022-12-07T04:25:39;63.57;;;28.87;;
55134;SDS011;41031;44.750;11.308;2022-12-07T04:28:07;63.43;;;30.27;;
55134;SDS011;41031;44.750;11.308;2022-12-07T04:30:34;67.73;;;30.90;;
55134;SDS011;41031;44.750;11.308;2022-12-07T04:33:01;63.00;;;29.20;;
55134;SDS011;41031;44.750;11.308;2022-12-07T04:35:28;66.67;;;28.60;;
55134;SDS011;41031;44.750;11.308;2022-12-07T04:37:55;62.43;;;27.07;;
55134;SDS011;41031;44.750;11.308;2022-12-07T04:40:22;55.97;;;26.60;;
55134;SDS011;41031;44.750;11.308;2022-12-07T04:42:49;56.30;;;28.57;;
55134;SDS011;41031;44.750;11.308;2022-12-07T04:45:16;61.87;;;27.20;;
55134;SDS011;41031;44.750;11.308;2022-12-07T04:47:43;57.30;;;27.00;;
55134;SDS011;41031;44.750;11.308;2022-12-07T04:50:10;64.00;;;26.57;;
55134;SDS011;41031;44.750;11.308;2022-12-07T04:52:37;62.83;;;27.80;;
55134;SDS011;41031;44.750;11.308;2022-12-07T04:55:04;66.27;;;29.07;;
55134;SDS011;41031;44.750;11.308;2022-12-07T04:57:31;64.57;;;29.77;;
55134;SDS011;41031;44.750;11.308;2022-12-07T04:59:58;67.83;;;29.20;;
55134;SDS011;41031;44.750;11.308;2022-12-07T05:02:26;60.57;;;29.30;;
55134;SDS011;41031;44.750;11.308;2022-12-07T05:04:53;62.83;;;29.37;;
55134;SDS011;41031;44.750;11.308;2022-12-07T05:07:20;70.70;;;29.07;;
55134;SDS011;41031;44.750;11.308;2022-12-07T05:09:47;72.13;;;30.57;;
55134;SDS011;41031;44.750;11.308;2022-12-07T05:12:14;73.03;;;31.30;;
55134;SDS011;41031;44.750;11.308;2022-12-07T05:14:41;74.60;;;33.23;;
55134;SDS011;41031;44.750;11.308;2022-12-07T05:17:08;85.60;;;34.03;;
55134;SDS011;41031;44.750;11.308;2022-12-07T05:19:35;80.53;;;33.67;;
55134;SDS011;41031;44.750;11.308;2022-12-07T05:22:02;84.20;;;35.43;;
55134;SDS011;41031;44.750;11.308;2022-12-07T05:24:29;102.27;;;35.87;;
55134;SDS011;41031;44.750;11.308;2022-12-07T05:26:56;105.30;;;38.20;;
55134;SDS011;41031;44.750;11.308;2022-12-07T05:29:23;91.47;;;36.17;;
55134;SDS011;41031;44.750;11.308;2022-12-07T05:31:50;98.90;;;35.73;;
55134;SDS011;41031;44.750;11.308;2022-12-07T05:34:18;74.67;;;31.17;;
55134;SDS011;41031;44.750;11.308;2022-12-07T05:36:45;66.10;;;26.23;;
55134;SDS011;41031;44.750;11.308;2022-12-07T05:39:12;52.87;;;26.57;;
55134;SDS011;41031;44.750;11.308;2022-12-07T05:41:39;61.10;;;27.97;;
55134;SDS011;41031;44.750;11.308;2022-12-07T05:44:25;59.17;;;26.07;;
55134;SDS011;41031;44.750;11.308;2022-12-07T05:46:52;56.93;;;24.87;;
55134;SDS011;41031;44.750;11.308;2022-12-07T05:49:19;50.93;;;24.57;;
55134;SDS011;41031;44.750;11.308;2022-12-07T05:51:46;57.13;;;25.43;;
55134;SDS011;41031;44.750;11.308;2022-12-07T05:54:13;54.43;;;26.13;;
55134;SDS011;41031;44.750;11.308;2022-12-07T05:56:40;58.43;;;26.87;;
55134;SDS011;41031;44.750;11.308;2022-12-07T05:59:08;64.70;;;29.30;;
55134;SDS011;41031;44.750;11.308;2022-12-07T06:01:54;74.20;;;29.93;;
55134;SDS011;41031;44.750;11.308;2022-12-07T06:04:27;56.90;;;28.07;;
55134;SDS011;41031;44.750;11.308;2022-12-07T06:06:56;57.23;;;27.40;;
55134;SDS011;41031;44.750;11.308;2022-12-07T06:09:24;76.37;;;29.07;;
55134;SDS011;41031;44.750;11.308;2022-12-07T06:11:53;68.40;;;29.03;;
55134;SDS011;41031;44.750;11.308;2022-12-07T06:14:39;63.00;;;27.60;;
55134;SDS011;41031;44.750;11.308;2022-12-07T06:17:06;66.43;;;30.43;;
55134;SDS011;41031;44.750;11.308;2022-12-07T06:19:34;61.90;;;28.17;;
55134;SDS011;41031;44.750;11.308;2022-12-07T06:22:01;72.67;;;29.40;;
55134;SDS011;41031;44.750;11.308;2022-12-07T06:24:31;69.43;;;30.57;;
55134;SDS011;41031;44.750;11.308;2022-12-07T06:26:59;64.10;;;28.50;;
55134;SDS011;41031;44.750;11.308;2022-12-07T06:29:26;53.87;;;27.83;;
55134;SDS011;41031;44.750;11.308;2022-12-07T06:31:53;59.73;;;28.13;;
55134;SDS011;41031;44.750;11.308;2022-12-07T06:34:21;59.90;;;27.60;;
55134;SDS011;41031;44.750;11.308;2022-12-07T06:36:49;66.40;;;29.97;;
55134;SDS011;41031;44.750;11.308;2022-12-07T06:39:20;62.60;;;28.00;;
55134;SDS011;41031;44.750;11.308;2022-12-07T06:41:50;62.97;;;28.77;;
55134;SDS011;41031;44.750;11.308;2022-12-07T06:44:18;57.70;;;27.83;;
55134;SDS011;41031;44.750;11.308;2022-12-07T06:46:45;69.20;;;28.83;;
55134;SDS011;41031;44.750;11.308;2022-12-07T06:49:13;48.43;;;24.87;;
55134;SDS011;41031;44.750;11.308;2022-12-07T06:51:40;53.63;;;26.43;;
55134;SDS011;41031;44.750;11.308;2022-12-07T06:54:09;57.73;;;29.00;;
55134;SDS011;41031;44.750;11.308;2022-12-07T06:56:37;62.10;;;28.37;;
55134;SDS011;41031;44.750;11.308;2022-12-07T06:59:05;57.93;;;29.37;;
55134;SDS011;41031;44.750;11.308;2022-12-07T07:01:34;52.90;;;26.83;;
55134;SDS011;41031;44.750;11.308;2022-12-07T07:04:02;63.97;;;26.33;;
55134;SDS011;41031;44.750;11.308;2022-12-07T07:06:30;63.87;;;29.87;;
55134;SDS011;41031;44.750;11.308;2022-12-07T07:08:57;64.47;;;28.53;;
55134;SDS011;41031;44.750;11.308;2022-12-07T07:11:24;55.20;;;28.73;;
55134;SDS011;41031;44.750;11.308;2022-12-07T07:13:51;60.17;;;28.37;;
55134;SDS011;41031;44.750;11.308;2022-12-07T07:16:18;54.67;;;25.63;;
55134;SDS011;41031;44.750;11.308;2022-12-07T07:18:45;49.37;;;26.43;;
55134;SDS011;41031;44.750;11.308;2022-12-07T07:21:12;51.03;;;25.67;;
55134;SDS011;41031;44.750;11.308;2022-12-07T07:23:39;48.57;;;25.33;;
55134;SDS011;41031;44.750;11.308;2022-12-07T07:26:06;47.50;;;24.67;;
55134;SDS011;41031;44.750;11.308;2022-12-07T07:28:34;51.37;;;25.80;;
55134;SDS011;41031;44.750;11.308;2022-12-07T07:31:01;50.70;;;26.33;;
55134;SDS011;41031;44.750;11.308;2022-12-07T07:33:28;55.53;;;26.63;;
55134;SDS011;41031;44.750;11.308;2022-12-07T07:35:55;55.57;;;26.83;;
55134;SDS011;41031;44.750;11.308;2022-12-07T07:38:22;51.10;;;25.20;;
55134;SDS011;41031;44.750;11.308;2022-12-07T07:40:49;47.90;;;25.27;;
55134;SDS011;41031;44.750;11.308;2022-12-07T07:43:16;54.97;;;26.03;;
55134;SDS011;41031;44.750;11.308;2022-12-07T07:45:43;45.07;;;23.43;;
55134;SDS011;41031;44.750;11.308;2022-12-07T07:48:11;49.70;;;24.03;;
55134;SDS011;41031;44.750;11.308;2022-12-07T07:50:38;45.60;;;24.00;;
55134;SDS011;41031;44.750;11.308;2022-12-07T07:53:05;44.10;;;23.83;;
55134;SDS011;41031;44.750;11.308;2022-12-07T07:55:32;44.30;;;24.40;;
55134;SDS011;41031;44.750;11.308;2022-12-07T07:57:59;43.97;;;25.07;;
55134;SDS011;41031;44.750;11.308;2022-12-07T08:00:26;50.50;;;24.40;;
55134;SDS011;41031;44.750;11.308;2022-12-07T08:02:53;43.60;;;23.97;;
55134;SDS011;41031;44.750;11.308;2022-12-07T08:05:21;43.63;;;23.50;;
55134;SDS011;41031;44.750;11.308;2022-12-07T08:07:48;42.27;;;24.30;;
55134;SDS011;41031;44.750;11.308;2022-12-07T08:10:15;48.87;;;23.93;;
55134;SDS011;41031;44.750;11.308;2022-12-07T08:12:42;46.00;;;24.73;;
55134;SDS011;41031;44.750;11.308;2022-12-07T08:15:29;48.37;;;26.00;;
55134;SDS011;41031;44.750;11.308;2022-12-07T08:17:58;48.23;;;23.53;;
55134;SDS011;41031;44.750;11.308;2022-12-07T08:20:25;52.20;;;24.13;;
55134;SDS011;41031;44.750;11.308;2022-12-07T08:22:53;46.93;;;23.83;;
55134;SDS011;41031;44.750;11.308;2022-12-07T08:25:20;42.83;;;25.47;;
55134;SDS011;41031;44.750;11.308;2022-12-07T08:27:48;46.73;;;24.10;;
55134;SDS011;41031;44.750;11.308;2022-12-07T08:30:16;51.10;;;25.83;;
55134;SDS011;41031;44.750;11.308;2022-12-07T08:32:46;47.90;;;24.17;;
55134;SDS011;41031;44.750;11.308;2022-12-07T08:35:14;47.83;;;23.20;;
55134;SDS011;41031;44.750;11.308;2022-12-07T08:37:41;45.97;;;25.43;;
55134;SDS011;41031;44.750;11.308;2022-12-07T08:40:10;49.07;;;24.80;;
55134;SDS011;41031;44.750;11.308;2022-12-07T08:42:42;45.17;;;25.00;;
55134;SDS011;41031;44.750;11.308;2022-12-07T08:45:12;41.03;;;23.40;;
55134;SDS011;41031;44.750;11.308;2022-12-07T08:47:41;42.90;;;24.63;;
55134;SDS011;41031;44.750;11.308;2022-12-07T08:50:38;51.63;;;25.33;;
55134;SDS011;41031;44.750;11.308;2022-12-07T08:53:14;47.80;;;24.67;;
55134;SDS011;41031;44.750;11.308;2022-12-07T08:55:41;44.00;;;23.90;;
55134;SDS011;41031;44.750;11.308;2022-12-07T08:58:11;49.27;;;25.70;;
55134;SDS011;41031;44.750;11.308;2022-12-07T09:00:38;50.40;;;26.93;;
55134;SDS011;41031;44.750;11.308;2022-12-07T09:03:05;48.07;;;25.50;;
55134;SDS011;41031;44.750;11.308;2022-12-07T09:05:32;53.53;;;25.90;;
55134;SDS011;41031;44.750;11.308;2022-12-07T09:08:01;51.07;;;25.77;;
55134;SDS011;41031;44.750;11.308;2022-12-07T09:10:28;55.23;;;24.90;;
55134;SDS011;41031;44.750;11.308;2022-12-07T09:12:56;50.90;;;25.50;;
55134;SDS011;41031;44.750;11.308;2022-12-07T09:15:30;52.40;;;26.57;;
55134;SDS011;41031;44.750;11.308;2022-12-07T09:17:58;50.03;;;26.33;;
55134;SDS011;41031;44.750;11.308;2022-12-07T09:20:25;53.43;;;27.23;;
55134;SDS011;41031;44.750;11.308;2022-12-07T09:22:53;54.67;;;28.23;;
55134;SDS011;41031;44.750;11.308;2022-12-07T09:25:20;51.00;;;27.03;;
55134;SDS011;41031;44.750;11.308;2022-12-07T09:27:48;63.83;;;26.73;;
55134;SDS011;41031;44.750;11.308;2022-12-07T09:30:21;50.23;;;27.00;;
55134;SDS011;41031;44.750;11.308;2022-12-07T09:32:48;55.57;;;29.07;;
55134;SDS011;41031;44.750;11.308;2022-12-07T09:35:15;51.33;;;27.37;;
55134;SDS011;41031;44.750;11.308;2022-12-07T09:37:42;51.47;;;28.63;;
55134;SDS011;41031;44.750;11.308;2022-12-07T09:40:09;54.07;;;28.70;;
55134;SDS011;41031;44.750;11.308;2022-12-07T09:42:37;53.77;;;27.63;;
55134;SDS011;41031;44.750;11.308;2022-12-07T09:45:26;50.50;;;28.00;;
55134;SDS011;41031;44.750;11.308;2022-12-07T09:48:00;53.73;;;28.10;;
55134;SDS011;41031;44.750;11.308;2022-12-07T09:50:29;51.60;;;27.60;;
55134;SDS011;41031;44.750;11.308;2022-12-07T09:53:08;53.47;;;27.63;;
55134;SDS011;41031;44.750;11.308;2022-12-07T09:55:40;54.57;;;30.00;;
55134;SDS011;41031;44.750;11.308;2022-12-07T09:58:21;50.77;;;27.27;;
55134;SDS011;41031;44.750;11.308;2022-12-07T10:00:54;49.97;;;28.03;;
55134;SDS011;41031;44.750;11.308;2022-12-07T10:03:27;47.03;;;28.57;;
55134;SDS011;41031;44.750;11.308;2022-12-07T10:05:55;51.57;;;28.03;;
55134;SDS011;41031;44.750;11.308;2022-12-07T10:08:24;54.13;;;30.73;;
55134;SDS011;41031;44.750;11.308;2022-12-07T10:10:53;46.17;;;27.57;;
55134;SDS011;41031;44.750;11.308;2022-12-07T10:13:33;49.43;;;30.07;;
55134;SDS011;41031;44.750;11.308;2022-12-07T10:16:02;44.33;;;27.40;;
55134;SDS011;41031;44.750;11.308;2022-12-07T10:18:36;47.20;;;29.20;;
55134;SDS011;41031;44.750;11.308;2022-12-07T10:23:37;50.03;;;29.43;;
55134;SDS011;41031;44.750;11.308;2022-12-07T10:26:52;50.47;;;32.20;;
55134;SDS011;41031;44.750;11.308;2022-12-07T10:31:45;43.87;;;28.53;;
55134;SDS011;41031;44.750;11.308;2022-12-07T10:34:21;41.97;;;27.43;;
55134;SDS011;41031;44.750;11.308;2022-12-07T10:37:17;38.40;;;25.73;;
55134;SDS011;41031;44.750;11.308;2022-12-07T10:42:17;45.37;;;29.13;;
55134;SDS011;41031;44.750;11.308;2022-12-07T10:45:28;43.83;;;27.67;;
55134;SDS011;41031;44.750;11.308;2022-12-07T11:07:10;37.10;;;24.70;;
55134;SDS011;41031;44.750;11.308;2022-12-07T11:10:02;44.53;;;27.00;;
55134;SDS011;41031;44.750;11.308;2022-12-07T11:23:44;36.17;;;24.20;;
55134;SDS011;41031;44.750;11.308;2022-12-07T11:31:35;40.40;;;23.37;;
55134;SDS011;41031;44.750;11.308;2022-12-07T11:34:06;37.83;;;21.67;;
55134;SDS011;41031;44.750;11.308;2022-12-07T11:36:58;38.57;;;22.53;;
55134;SDS011;41031;44.750;11.308;2022-12-07T11:39:39;36.23;;;22.00;;
55134;SDS011;41031;44.750;11.308;2022-12-07T11:42:20;37.23;;;21.83;;
55134;SDS011;41031;44.750;11.308;2022-12-07T11:45:03;42.17;;;22.97;;
55134;SDS011;41031;44.750;11.308;2022-12-07T11:50:36;43.27;;;22.83;;
55134;SDS011;41031;44.750;11.308;2022-12-07T11:53:24;36.90;;;20.90;;
55134;SDS011;41031;44.750;11.308;2022-12-07T11:56:22;33.90;;;21.07;;
55134;SDS011;41031;44.750;11.308;2022-12-07T11:58:53;36.53;;;21.07;;
55134;SDS011;41031;44.750;11.308;2022-12-07T12:06:40;32.57;;;20.57;;
55134;SDS011;41031;44.750;11.308;2022-12-07T12:09:14;34.97;;;21.87;;
55134;SDS011;41031;44.750;11.308;2022-12-07T12:15:08;33.17;;;20.83;;
55134;SDS011;41031;44.750;11.308;2022-12-07T12:28:30;28.70;;;20.87;;
55134;SDS011;41031;44.750;11.308;2022-12-07T12:33:44;31.97;;;21.63;;
55134;SDS011;41031;44.750;11.308;2022-12-07T12:46:55;35.33;;;24.00;;
55134;SDS011;41031;44.750;11.308;2022-12-07T12:52:01;35.97;;;25.50;;
55134;SDS011;41031;44.750;11.308;2022-12-07T12:54:35;42.10;;;28.77;;
55134;SDS011;41031;44.750;11.308;2022-12-07T13:12:56;41.43;;;28.43;;
55134;SDS011;41031;44.750;11.308;2022-12-07T13:15:42;41.47;;;27.77;;
55134;SDS011;41031;44.750;11.308;2022-12-07T13:23:37;39.10;;;27.00;;
55134;SDS011;41031;44.750;11.308;2022-12-07T13:26:19;40.67;;;27.40;;
55134;SDS011;41031;44.750;11.308;2022-12-07T13:31:38;36.83;;;26.50;;
55134;SDS011;41031;44.750;11.308;2022-12-07T13:34:28;40.77;;;27.97;;
55134;SDS011;41031;44.750;11.308;2022-12-07T13:37:04;39.10;;;27.13;;
55134;SDS011;41031;44.750;11.308;2022-12-07T13:42:26;39.23;;;25.90;;
55134;SDS011;41031;44.750;11.308;2022-12-07T13:44:58;35.40;;;26.00;;
55134;SDS011;41031;44.750;11.308;2022-12-07T13:47:32;34.37;;;24.57;;
55134;SDS011;41031;44.750;11.308;2022-12-07T13:50:23;33.63;;;23.47;;
55134;SDS011;41031;44.750;11.308;2022-12-07T13:52:56;33.03;;;24.30;;
55134;SDS011;41031;44.750;11.308;2022-12-07T13:55:25;32.03;;;23.43;;
55134;SDS011;41031;44.750;11.308;2022-12-07T13:57:53;32.47;;;22.77;;
55134;SDS011;41031;44.750;11.308;2022-12-07T14:00:25;31.70;;;23.00;;
55134;SDS011;41031;44.750;11.308;2022-12-07T14:02:55;27.63;;;20.87;;
55134;SDS011;41031;44.750;11.308;2022-12-07T14:05:28;29.13;;;21.23;;
55134;SDS011;41031;44.750;11.308;2022-12-07T14:12:58;27.83;;;21.57;;
55134;SDS011;41031;44.750;11.308;2022-12-07T14:15:33;28.73;;;21.67;;
55134;SDS011;41031;44.750;11.308;2022-12-07T14:18:01;29.47;;;21.60;;
55134;SDS011;41031;44.750;11.308;2022-12-07T14:20:38;30.33;;;22.37;;
55134;SDS011;41031;44.750;11.308;2022-12-07T14:23:21;29.93;;;21.03;;
55134;SDS011;41031;44.750;11.308;2022-12-07T14:25:51;27.67;;;19.57;;
55134;SDS011;41031;44.750;11.308;2022-12-07T14:28:33;29.10;;;21.43;;
55134;SDS011;41031;44.750;11.308;2022-12-07T14:31:02;27.37;;;21.37;;
55134;SDS011;41031;44.750;11.308;2022-12-07T14:33:30;28.77;;;21.73;;
55134;SDS011;41031;44.750;11.308;2022-12-07T14:35:57;28.70;;;21.67;;
55134;SDS011;41031;44.750;11.308;2022-12-07T14:38:24;27.30;;;22.13;;
55134;SDS011;41031;44.750;11.308;2022-12-07T14:40:52;28.13;;;21.73;;
55134;SDS011;41031;44.750;11.308;2022-12-07T14:43:41;30.33;;;22.53;;
55134;SDS011;41031;44.750;11.308;2022-12-07T14:46:28;28.37;;;21.60;;
55134;SDS011;41031;44.750;11.308;2022-12-07T14:48:55;33.60;;;24.07;;
55134;SDS011;41031;44.750;11.308;2022-12-07T14:51:42;33.27;;;22.83;;
55134;SDS011;41031;44.750;11.308;2022-12-07T14:54:31;38.27;;;22.37;;
55134;SDS011;41031;44.750;11.308;2022-12-07T14:56:59;28.90;;;21.77;;
55134;SDS011;41031;44.750;11.308;2022-12-07T14:59:26;27.27;;;21.03;;
55134;SDS011;41031;44.750;11.308;2022-12-07T15:01:53;29.40;;;21.10;;
55134;SDS011;41031;44.750;11.308;2022-12-07T15:04:20;29.27;;;21.30;;
55134;SDS011;41031;44.750;11.308;2022-12-07T15:06:54;33.00;;;23.37;;
55134;SDS011;41031;44.750;11.308;2022-12-07T15:09:26;30.93;;;22.43;;
55134;SDS011;41031;44.750;11.308;2022-12-07T15:11:53;29.87;;;21.93;;
55134;SDS011;41031;44.750;11.308;2022-12-07T15:14:20;32.97;;;23.20;;
55134;SDS011;41031;44.750;11.308;2022-12-07T15:16:47;37.03;;;24.67;;
55134;SDS011;41031;44.750;11.308;2022-12-07T15:19:34;37.80;;;25.47;;
55134;SDS011;41031;44.750;11.308;2022-12-07T15:22:01;35.00;;;25.10;;
55134;SDS011;41031;44.750;11.308;2022-12-07T15:24:28;32.70;;;24.63;;
55134;SDS011;41031;44.750;11.308;2022-12-07T15:26:55;37.50;;;24.47;;
55134;SDS011;41031;44.750;11.308;2022-12-07T15:29:23;35.13;;;23.97;;
55134;SDS011;41031;44.750;11.308;2022-12-07T15:31:50;42.83;;;27.30;;
55134;SDS011;41031;44.750;11.308;2022-12-07T15:34:26;42.00;;;26.70;;
55134;SDS011;41031;44.750;11.308;2022-12-07T15:37:04;37.10;;;25.93;;
55134;SDS011;41031;44.750;11.308;2022-12-07T15:39:32;36.90;;;25.70;;
55134;SDS011;41031;44.750;11.308;2022-12-07T15:41:59;37.57;;;26.13;;
55134;SDS011;41031;44.750;11.308;2022-12-07T15:44:26;40.30;;;26.07;;
55134;SDS011;41031;44.750;11.308;2022-12-07T15:47:12;41.60;;;26.60;;
55134;SDS011;41031;44.750;11.308;2022-12-07T15:49:39;41.73;;;28.70;;
55134;SDS011;41031;44.750;11.308;2022-12-07T15:52:06;44.43;;;28.90;;
55134;SDS011;41031;44.750;11.308;2022-12-07T15:54:33;43.33;;;28.93;;
55134;SDS011;41031;44.750;11.308;2022-12-07T15:57:00;43.73;;;27.67;;
55134;SDS011;41031;44.750;11.308;2022-12-07T15:59:27;40.17;;;25.73;;
55134;SDS011;41031;44.750;11.308;2022-12-07T16:01:55;40.67;;;25.90;;
55134;SDS011;41031;44.750;11.308;2022-12-07T16:04:23;51.53;;;28.07;;
55134;SDS011;41031;44.750;11.308;2022-12-07T16:06:50;45.13;;;28.40;;
55134;SDS011;41031;44.750;11.308;2022-12-07T16:09:18;44.73;;;29.57;;
55134;SDS011;41031;44.750;11.308;2022-12-07T16:11:45;44.87;;;27.60;;
55134;SDS011;41031;44.750;11.308;2022-12-07T16:14:12;49.20;;;28.33;;
55134;SDS011;41031;44.750;11.308;2022-12-07T16:16:39;42.40;;;28.70;;
55134;SDS011;41031;44.750;11.308;2022-12-07T16:19:08;41.70;;;28.67;;
55134;SDS011;41031;44.750;11.308;2022-12-07T16:21:35;43.70;;;27.97;;
55134;SDS011;41031;44.750;11.308;2022-12-07T16:24:03;44.27;;;29.33;;
55134;SDS011;41031;44.750;11.308;2022-12-07T16:26:31;43.60;;;29.47;;
55134;SDS011;41031;44.750;11.308;2022-12-07T16:28:58;42.30;;;28.43;;
55134;SDS011;41031;44.750;11.308;2022-12-07T16:31:27;42.10;;;27.37;;
55134;SDS011;41031;44.750;11.308;2022-12-07T16:33:55;45.43;;;29.57;;
55134;SDS011;41031;44.750;11.308;2022-12-07T16:36:24;43.50;;;28.53;;
55134;SDS011;41031;44.750;11.308;2022-12-07T16:39:12;44.07;;;28.50;;
55134;SDS011;41031;44.750;11.308;2022-12-07T16:41:40;50.90;;;28.33;;
55134;SDS011;41031;44.750;11.308;2022-12-07T16:44:09;48.93;;;28.97;;
55134;SDS011;41031;44.750;11.308;2022-12-07T16:46:37;78.13;;;29.97;;
55134;SDS011;41031;44.750;11.308;2022-12-07T16:49:05;111.27;;;32.77;;
55134;SDS011;41031;44.750;11.308;2022-12-07T16:51:32;62.40;;;31.57;;
55134;SDS011;41031;44.750;11.308;2022-12-07T16:54:01;65.93;;;33.40;;
55134;SDS011;41031;44.750;11.308;2022-12-07T16:56:28;112.80;;;36.57;;
55134;SDS011;41031;44.750;11.308;2022-12-07T16:58:57;76.47;;;34.00;;
55134;SDS011;41031;44.750;11.308;2022-12-07T17:01:25;113.07;;;34.93;;
55134;SDS011;41031;44.750;11.308;2022-12-07T17:03:55;89.07;;;34.13;;
55134;SDS011;41031;44.750;11.308;2022-12-07T17:06:24;90.93;;;36.77;;
55134;SDS011;41031;44.750;11.308;2022-12-07T17:08:53;172.20;;;36.33;;
55134;SDS011;41031;44.750;11.308;2022-12-07T17:11:23;177.07;;;38.97;;
55134;SDS011;41031;44.750;11.308;2022-12-07T17:13:54;156.93;;;39.77;;